Smith Reynolds Airport Winston Salem US
ICAO: KINT
IATA: INT
Category: Medium
Scheduled Services: No

Elevation: 969 ft
TransAlt. 18000 ft.

Airport Communications:
GREENSBORO APP/DEP:124.35
ATIS:121.3
CTAF:123.75
GND:128.25
WINSTON SALEM TWR:123.75
UNICOM:122.95

KINT Zoom In..

If you have problems with the map follow the link
https://www.worldairports.se/pages/airport.php?
ICAO=KINT

Runways:

(A) RW 04 length 3938 ft width 150 ft
---- / hdg 38

(B) RW 15 length 6655 ft width 150 ft
---- / hdg 152

(C) RW 22 length 3938 ft width 150 ft
---- / hdg 218

(D) RW 33 length 6655 ft width 150 ft
ILS 110.30 / hdg 332

Location; KINT
Day. 18 / Time. 10.54 Zulu
* Altimeter: 30.51
* Temperature: 03° c. 37.4°f.
* Wind from: 180° Speed 06 kn.
Dewpoint: -08° c.
Visibility: 10 Statute Miles.
Clouds: Overcast 11000 ft.

KINT 181054Z AUTO 18006KT 10SM OVC110 03/M08 A3051 RMK AO2 SLP336 T00281078


Wind From 180°
Speed 06 kn.

 
 
jpsmedia worldairports.se 2020   terms of use